Time;durP1;ratioP1;P1;durP2;ratioP2;P2;SDS_P1;SDS_P2;PMS_P1;PMS_P2;Temp;Humidity;BMP_temperature;BMP_pressure;BME280_temperature;BME280_humidity;BME280_pressure;Samples;Min_cycle;Max_cycle;Signal;HPM_P1;HPM_P2
2021/04/25 00:02:35;;;;;;;;;16.00;16.00;;;;;5.90;67.63;101943.41;4860230;29;11589;-72
2021/04/25 00:05:31;;;;;;;;;16.50;16.50;;;;;5.83;67.76;101943.66;4857819;29;11705;-72
2021/04/25 00:08:27;;;;;;;;;16.25;15.50;;;;;5.69;68.28;101939.75;4855463;29;11563;-72
2021/04/25 00:11:22;;;;;;;;;14.00;14.00;;;;;5.57;69.03;101939.97;4870061;29;11688;-72
2021/04/25 00:14:18;;;;;;;;;19.50;19.50;;;;;5.55;69.47;101942.97;4878580;29;11664;-72
2021/04/25 00:17:13;;;;;;;;;17.25;17.25;;;;;5.63;68.84;101943.56;4890989;29;11644;-73
2021/04/25 00:20:11;;;;;;;;;9.50;9.50;;;;;5.61;69.33;101935.59;4891237;29;11613;-72
2021/04/25 00:23:07;;;;;;;;;13.00;12.50;;;;;5.52;69.27;101939.94;4852140;29;11571;-72
2021/04/25 00:26:03;;;;;;;;;13.75;13.50;;;;;5.40;69.16;101947.56;4876762;29;11575;-72
2021/04/25 00:28:45;;;;;;;;;13.00;13.00;;;;;5.40;69.04;101955.78;4854218;29;11591;-72
2021/04/25 00:31:41;;;;;;;;;19.75;19.75;;;;;5.46;68.82;101936.34;4871200;29;11535;-71
2021/04/25 00:34:09;;;;;;;;;14.00;14.00;;;;;5.43;68.77;101944.28;4878499;29;11577;-70
2021/04/25 00:37:04;;;;;;;;;11.50;11.50;;;;;5.34;69.42;101935.72;4881032;29;11541;-71
2021/04/25 00:40:00;;;;;;;;;20.25;16.00;;;;;5.33;68.93;101936.00;4888967;29;11643;-71
2021/04/25 00:42:55;;;;;;;;;15.25;15.25;;;;;5.34;69.13;101929.41;4880852;29;11533;-71
2021/04/25 00:45:51;;;;;;;;;12.25;12.00;;;;;5.33;68.47;101939.56;4869087;29;11542;-71
2021/04/25 00:48:19;;;;;;;;;21.25;20.25;;;;;5.47;68.73;101929.78;4885694;29;11527;-71
2021/04/25 00:51:15;;;;;;;;;12.50;12.50;;;;;5.17;69.56;101926.84;4886005;29;11608;-71
2021/04/25 00:54:11;;;;;;;;;17.00;16.00;;;;;5.22;68.61;101918.66;4886752;29;11576;-70
2021/04/25 00:57:08;;;;;;;;;14.25;14.25;;;;;5.08;69.38;101936.66;4878179;29;11675;-72
2021/04/25 01:00:06;;;;;;;;;16.50;16.50;;;;;5.09;69.24;101933.66;4892047;29;11608;-71
2021/04/25 01:03:02;;;;;;;;;13.00;13.00;;;;;5.09;69.17;101928.16;4866846;29;11586;-72
2021/04/25 01:05:57;;;;;;;;;16.00;15.75;;;;;5.15;68.89;101924.38;4872132;29;11538;-72
2021/04/25 01:08:54;;;;;;;;;17.50;17.50;;;;;5.19;68.33;101925.47;4873196;29;11787;-72
2021/04/25 01:11:50;;;;;;;;;18.25;18.25;;;;;5.06;68.73;101933.34;4878907;29;11704;-72
2021/04/25 01:14:45;;;;;;;;;17.75;17.75;;;;;5.12;69.03;101926.81;4861275;29;11608;-72
2021/04/25 01:17:46;;;;;;;;;15.50;15.50;;;;;5.07;69.56;101929.53;4870222;29;11560;-72
2021/04/25 01:20:41;;;;;;;;;16.00;16.00;;;;;4.92;69.29;101933.00;4872688;29;11547;-71
2021/04/25 01:23:37;;;;;;;;;15.75;14.75;;;;;4.91;69.65;101934.09;4887070;29;12521;-71
2021/04/25 01:26:33;;;;;;;;;15.00;15.00;;;;;4.90;70.75;101935.13;4887548;29;11603;-71
2021/04/25 01:29:28;;;;;;;;;20.50;19.50;;;;;5.16;69.76;101920.53;4880758;29;11709;-71
2021/04/25 01:32:24;;;;;;;;;19.75;19.75;;;;;5.07;70.35;101935.00;4881752;29;11631;-71
2021/04/25 01:35:22;;;;;;;;;19.25;19.25;;;;;4.94;71.12;101930.81;4867341;29;12322;-71
2021/04/25 01:38:18;;;;;;;;;18.25;18.25;;;;;5.03;70.26;101929.22;4874607;29;11668;-72
2021/04/25 01:41:13;;;;;;;;;15.00;15.00;;;;;4.95;69.90;101927.78;4889527;29;12415;-71
2021/04/25 01:44:09;;;;;;;;;23.25;17.25;;;;;4.87;70.58;101928.28;4878568;29;11628;-72
2021/04/25 01:46:36;;;;;;;;;17.50;16.50;;;;;4.85;70.58;101930.47;4888066;29;11553;-70
2021/04/25 01:49:32;;;;;;;;;17.25;17.25;;;;;4.89;70.63;101934.31;4886173;29;11579;-71
2021/04/25 01:52:28;;;;;;;;;13.75;13.75;;;;;4.80;71.17;101930.41;4868713;29;11712;-71
2021/04/25 01:55:25;;;;;;;;;22.75;20.25;;;;;4.90;70.15;101929.66;4869951;29;11741;-71
2021/04/25 01:58:22;;;;;;;;;15.25;14.75;;;;;4.79;70.53;101938.91;4890099;29;11644;-71
2021/04/25 02:01:18;;;;;;;;;18.50;18.50;;;;;4.79;69.94;101938.91;4888442;29;11662;-71
2021/04/25 02:04:14;;;;;;;;;15.50;15.50;;;;;4.75;70.44;101941.31;4870769;29;11628;-71
2021/04/25 02:07:10;;;;;;;;;20.00;20.00;;;;;4.78;70.30;101946.31;4891748;29;11609;-71
2021/04/25 02:10:07;;;;;;;;;17.50;17.50;;;;;4.72;70.35;101947.34;4883928;29;11792;-71
2021/04/25 02:13:04;;;;;;;;;17.75;17.75;;;;;4.62;70.32;101956.31;4859277;29;11682;-71
2021/04/25 02:16:00;;;;;;;;;18.25;18.25;;;;;4.53;71.44;101952.41;4877150;29;11700;-72
2021/04/25 02:18:55;;;;;;;;;16.75;16.75;;;;;4.52;70.48;101947.16;4875737;29;11707;-71
2021/04/25 02:21:51;;;;;;;;;19.75;16.50;;;;;4.52;70.91;101949.88;4868194;29;11612;-71
2021/04/25 02:24:46;;;;;;;;;19.75;19.75;;;;;4.65;70.57;101947.56;4882320;29;11778;-72
2021/04/25 02:27:42;;;;;;;;;18.75;18.75;;;;;4.53;70.39;101952.41;4885324;29;11589;-71
2021/04/25 02:30:38;;;;;;;;;21.75;21.75;;;;;4.62;70.18;101947.25;4867830;29;11589;-72
2021/04/25 02:33:34;;;;;;;;;16.00;16.00;;;;;4.61;70.94;101948.34;4876055;29;11747;-71
2021/04/25 02:36:30;;;;;;;;;13.00;13.00;;;;;4.73;69.90;101958.03;4883011;29;11608;-71
2021/04/25 02:39:25;;;;;;;;;16.25;16.25;;;;;4.58;70.12;101955.16;4882174;29;11693;-71
2021/04/25 02:42:21;;;;;;;;;16.75;16.75;;;;;4.60;70.49;101957.63;4878807;29;12469;-71
2021/04/25 02:45:19;;;;;;;;;17.25;15.75;;;;;4.56;69.65;101959.25;4873277;29;11802;-72
2021/04/25 02:48:15;;;;;;;;;9.25;9.25;;;;;4.57;69.57;101955.44;4857617;29;11610;-72
2021/04/25 02:50:43;;;;;;;;;23.00;17.00;;;;;4.61;68.82;101954.66;4874145;29;12408;-71
2021/04/25 02:53:39;;;;;;;;;27.50;24.00;;;;;4.65;68.57;101957.69;4867548;29;11734;-72
2021/04/25 02:56:34;;;;;;;;;23.50;19.00;;;;;4.65;68.99;101964.00;4878711;29;11652;-72
2021/04/25 02:59:30;;;;;;;;;17.25;16.25;;;;;4.64;68.92;101964.25;4863407;29;12345;-72
2021/04/25 03:02:25;;;;;;;;;25.75;23.25;;;;;4.65;68.99;101964.00;4888394;29;11567;-70
2021/04/25 03:05:21;;;;;;;;;25.75;25.75;;;;;4.70;68.94;101966.78;4868305;29;11701;-72
2021/04/25 03:08:17;;;;;;;;;23.00;21.00;;;;;4.67;69.07;101977.44;4877124;29;11688;-72
2021/04/25 03:11:13;;;;;;;;;23.25;20.25;;;;;4.74;69.21;101984.34;4891285;29;11551;-72
2021/04/25 03:14:08;;;;;;;;;20.75;20.75;;;;;4.80;69.44;101974.28;4865256;29;11678;-72
2021/04/25 03:17:04;;;;;;;;;19.50;19.50;;;;;4.83;69.40;101972.91;4859157;29;11628;-71
2021/04/25 03:19:59;;;;;;;;;26.00;26.00;;;;;4.88;70.52;101983.94;4871597;29;11722;-71
2021/04/25 03:22:56;;;;;;;;;23.50;23.50;;;;;5.09;70.63;101980.28;4883895;29;11789;-71
2021/04/25 03:25:51;;;;;;;;;27.25;25.75;;;;;5.07;70.55;101974.22;4875404;29;11582;-71
2021/04/25 03:28:40;;;;;;;;;31.75;31.75;;;;;5.13;69.52;101978.63;4889693;29;11623;-70
2021/04/25 03:31:36;;;;;;;;;26.25;26.25;;;;;5.21;69.11;101983.66;4859240;29;11613;-71
2021/04/25 03:34:07;;;;;;;;;34.25;32.50;;;;;5.25;70.56;101989.44;4876450;29;11709;-71
2021/04/25 03:37:04;;;;;;;;;30.25;29.25;;;;;5.52;69.25;101981.09;4876628;29;11833;-71
2021/04/25 03:40:00;;;;;;;;;31.25;29.50;;;;;5.61;67.68;101989.69;4881418;29;12435;-71
2021/04/25 03:42:27;;;;;;;;;25.75;24.50;;;;;5.82;67.48;101994.97;4881885;29;11591;-72
2021/04/25 03:45:23;;;;;;;;;26.75;26.75;;;;;5.90;67.13;101996.38;4886134;29;11728;-72
2021/04/25 03:48:13;;;;;;;;;29.00;25.00;;;;;5.89;66.08;102002.97;4893216;29;12400;-72
2021/04/25 03:51:08;;;;;;;;;26.25;26.25;;;;;5.90;65.49;101995.56;4880250;29;11681;-72
2021/04/25 03:54:04;;;;;;;;;1.00;1.00;;;;;6.02;63.86;101998.97;4859010;29;11668;-72
2021/04/25 03:57:00;;;;;;;;;23.75;23.75;;;;;6.11;63.31;102006.41;4874737;29;11508;-72
2021/04/25 03:59:56;;;;;;;;;16.50;14.50;;;;;6.21;62.66;102004.78;4869015;29;11593;-72
2021/04/25 04:02:51;;;;;;;;;26.50;24.00;;;;;6.35;61.69;102012.25;4874766;29;11541;-73
2021/04/25 04:05:47;;;;;;;;;24.50;22.25;;;;;6.50;61.22;102007.91;4861762;29;12373;-72
2021/04/25 04:08:42;;;;;;;;;20.25;20.25;;;;;6.64;60.25;102001.59;4871966;29;11642;-73
2021/04/25 04:11:38;;;;;;;;;26.25;24.25;;;;;6.76;60.38;102012.34;4867221;29;11764;-72
2021/04/25 04:14:34;;;;;;;;;18.50;18.00;;;;;6.96;60.01;102008.78;4879087;29;11695;-72
2021/04/25 04:17:29;;;;;;;;;18.50;18.50;;;;;7.20;58.95;102014.56;4874829;29;11685;-72
2021/04/25 04:20:25;;;;;;;;;15.50;14.75;;;;;7.34;59.35;102017.56;4883387;29;11544;-73
2021/04/25 04:23:02;;;;;;;;;11.75;11.75;;;;;7.31;56.65;102016.22;4861148;29;11749;-72
2021/04/25 04:25:34;;;;;;;;;17.00;17.00;;;;;7.42;56.52;102020.59;4855853;29;11640;-72
2021/04/25 04:28:29;;;;;;;;;18.00;18.00;;;;;7.80;57.97;102021.06;4870898;29;11712;-72
2021/04/25 04:31:25;;;;;;;;;20.25;20.25;;;;;8.06;56.21;102021.81;4876666;29;11702;-73
2021/04/25 04:34:21;;;;;;;;;15.00;15.00;;;;;8.13;55.07;102018.75;4860275;29;11584;-73
2021/04/25 04:37:16;;;;;;;;;15.75;15.00;;;;;7.96;52.45;102014.41;4862915;29;11807;-73
2021/04/25 04:40:12;;;;;;;;;13.50;13.50;;;;;7.94;53.60;102022.13;4875015;29;11680;-73
2021/04/25 04:43:08;;;;;;;;;14.00;14.00;;;;;8.13;53.66;102024.25;4874452;29;11628;-73
2021/04/25 04:45:58;;;;;;;;;13.75;13.75;;;;;8.30;53.72;102028.31;4876689;29;11655;-72
2021/04/25 04:48:25;;;;;;;;;15.50;15.50;;;;;8.51;52.46;102028.22;4873430;29;11650;-71
2021/04/25 04:51:21;;;;;;;;;13.00;13.00;;;;;8.62;52.03;102022.38;4856184;29;11740;-71
2021/04/25 04:54:16;;;;;;;;;16.75;16.75;;;;;8.82;54.18;102026.13;4856193;29;11597;-71
2021/04/25 04:56:44;;;;;;;;;21.25;16.75;;;;;9.11;54.89;102020.66;4861082;29;11717;-71
2021/04/25 04:59:12;;;;;;;;;12.75;12.75;;;;;9.33;52.10;102029.28;4860567;29;11569;-71
2021/04/25 05:02:08;;;;;;;;;17.75;16.00;;;;;9.47;50.62;102029.44;4881668;29;11601;-71
2021/04/25 05:05:07;;;;;;;;;12.50;11.00;;;;;9.53;48.80;102025.53;4891858;29;11609;-71
2021/04/25 05:08:02;;;;;;;;;13.00;13.00;;;;;9.73;48.79;102019.78;4895414;29;11536;-71
2021/04/25 05:10:58;;;;;;;;;10.00;10.00;;;;;9.90;47.78;102027.63;4859049;29;11619;-71
2021/04/25 05:13:54;;;;;;;;;7.75;7.75;;;;;9.98;47.30;102015.91;4874713;29;11558;-71
2021/04/25 05:16:49;;;;;;;;;10.50;10.50;;;;;10.24;47.29;102019.19;4884903;29;11472;-71
2021/04/25 05:19:45;;;;;;;;;9.25;9.25;;;;;10.27;46.33;102013.09;4872470;29;11467;-72
2021/04/25 05:22:12;;;;;;;;;11.50;11.50;;;;;10.62;49.31;102023.97;4879460;29;11170;-71
2021/04/25 05:25:09;;;;;;;;;9.50;9.50;;;;;10.61;44.78;102019.53;4881116;29;11975;-71
2021/04/25 05:28:04;;;;;;;;;9.50;9.50;;;;;11.05;52.19;102008.06;4881145;29;11037;-71
2021/04/25 05:31:01;;;;;;;;;10.00;10.00;;;;;12.02;59.96;102018.22;4854712;29;10978;-71
2021/04/25 05:33:56;;;;;;;;;9.75;9.75;;;;;12.28;55.29;102014.94;4878104;29;10928;-76
2021/04/25 05:36:52;;;;;;;;;9.75;9.75;;;;;12.43;51.05;102012.63;4870521;29;10700;-73
2021/04/25 05:39:34;;;;;;;;;5.00;5.00;;;;;12.61;48.41;102015.56;4855773;29;10816;-74
2021/04/25 05:42:01;;;;;;;;;5.50;5.50;;;;;12.42;44.79;102019.31;4876657;29;11276;-75
2021/04/25 05:44:46;;;;;;;;;4.75;4.75;;;;;12.42;42.99;102012.91;4879720;29;10450;-75
2021/04/25 05:47:30;;;;;;;;;4.25;4.25;;;;;12.77;43.39;102014.06;4878384;29;10163;-76
2021/04/25 05:50:04;;;;;;;;;4.25;4.25;;;;;12.57;40.47;102018.13;4886558;29;10138;-75
2021/04/25 05:52:59;;;;;;;;;9.25;8.25;;;;;12.62;40.17;102017.22;4874159;29;10062;-76
2021/04/25 05:55:55;;;;;;;;;4.25;4.25;;;;;12.64;40.00;102017.72;4880946;29;10408;-76
2021/04/25 05:58:51;;;;;;;;;3.50;3.50;;;;;12.62;40.01;102014.44;4884532;29;10187;-75
2021/04/25 06:01:47;;;;;;;;;3.00;3.00;;;;;13.01;39.52;102008.22;4879990;29;9956;-75
2021/04/25 06:04:42;;;;;;;;;4.75;4.75;;;;;13.06;43.07;102006.16;4869028;29;10080;-74
2021/04/25 06:07:39;;;;;;;;;10.25;8.50;;;;;13.06;38.57;102010.88;4866354;29;10161;-75
2021/04/25 06:10:35;;;;;;;;;4.50;4.50;;;;;13.53;38.98;102006.63;4874332;29;10348;-75
2021/04/25 06:13:31;;;;;;;;;3.00;3.00;;;;;13.25;43.33;102013.47;4872515;29;9970;-75
2021/04/25 06:16:27;;;;;;;;;63.00;49.00;;;;;13.41;44.28;102014.72;4883191;29;9926;-75
2021/04/25 06:19:23;;;;;;;;;200.00;163.33;;;;;13.59;37.55;102010.09;4879392;29;11342;-76
2021/04/25 06:21:50;;;;;;;;;32.50;28.75;;;;;13.72;44.43;102005.56;4873185;29;8880;-75
2021/04/25 06:24:26;;;;;;;;;18.50;18.50;;;;;13.89;41.86;102014.81;4891321;29;10744;-75
2021/04/25 06:26:53;;;;;;;;;12.25;12.25;;;;;14.12;42.26;102012.78;4895408;29;10339;-75
2021/04/25 06:29:51;;;;;;;;;27.25;26.25;;;;;14.10;44.97;102011.44;4882985;29;9994;-75
2021/04/25 06:32:47;;;;;;;;;14.50;14.50;;;;;13.87;37.27;102005.13;4873360;29;10394;-75
2021/04/25 06:35:43;;;;;;;;;135.00;112.75;;;;;13.92;36.83;102005.00;4872707;29;10503;-75
2021/04/25 06:38:39;;;;;;;;;357.75;288.00;;;;;13.73;40.26;102012.78;4889379;29;11636;-76
2021/04/25 06:41:36;;;;;;;;;306.75;239.50;;;;;14.04;39.49;102010.78;4879204;29;8896;-75
2021/04/25 06:44:31;;;;;;;;;37.75;34.50;;;;;13.94;36.14;102008.28;4891271;29;11641;-75
2021/04/25 06:47:03;;;;;;;;;32.00;28.25;;;;;14.02;36.00;102007.47;4880104;29;11270;-75
2021/04/25 06:49:59;;;;;;;;;15.75;14.00;;;;;13.96;37.14;102000.44;4888589;29;10654;-76
2021/04/25 06:52:43;;;;;;;;;381.75;298.50;;;;;14.15;41.21;102000.97;4889216;29;9756;-75
2021/04/25 06:55:44;;;;;;;;;39.75;34.75;;;;;14.44;38.14;101988.44;4888351;29;8885;-75
2021/04/25 06:58:12;;;;;;;;;14.00;14.00;;;;;14.68;37.10;101996.34;4890123;29;11808;-77
2021/04/25 07:01:10;;;;;;;;;68.00;52.50;;;;;14.74;37.26;101998.66;4893009;29;9875;-76
2021/04/25 07:04:06;;;;;;;;;77.75;64.75;;;;;14.78;36.95;101996.00;4887769;29;11647;-76
2021/04/25 07:07:01;;;;;;;;;5.67;5.67;;;;;14.60;33.97;101997.16;4890747;29;11674;-76
2021/04/25 07:09:58;;;;;;;;;30.50;28.25;;;;;14.62;36.91;101987.31;4891188;29;9360;-77
2021/04/25 07:12:55;;;;;;;;;18.50;18.50;;;;;15.01;37.07;101991.09;4889734;29;10482;-76
2021/04/25 07:15:51;;;;;;;;;10.33;10.33;;;;;14.97;34.19;101984.53;4880285;29;11131;-75
2021/04/25 07:18:46;;;;;;;;;79.25;64.50;;;;;15.60;39.32;101988.50;4880009;29;9397;-75
2021/04/25 07:21:42;;;;;;;;;12.67;12.67;;;;;15.48;33.00;101991.16;4873428;29;12507;-76
2021/04/25 07:24:38;;;;;;;;;16.67;15.00;;;;;15.30;33.10;101994.00;4881024;29;9480;-76
2021/04/25 07:27:34;;;;;;;;;42.50;38.00;;;;;15.58;35.03;101990.81;4890987;29;9498;-76
2021/04/25 07:30:30;;;;;;;;;23.00;15.50;;;;;15.84;34.11;101982.34;4890789;29;10562;-77
2021/04/25 07:33:26;;;;;;;;;15.00;15.00;;;;;15.89;33.61;101984.16;4890637;29;9636;-77
2021/04/25 07:36:22;;;;;;;;;76.50;57.00;;;;;16.03;39.05;101984.72;4889994;29;9122;-76
2021/04/25 07:39:20;;;;;;;;;24.67;22.33;;;;;15.89;33.18;101981.34;4882980;29;11548;-76
2021/04/25 07:42:18;;;;;;;;;82.50;64.25;;;;;16.29;40.13;101982.59;4893454;29;9374;-77
2021/04/25 07:45:14;;;;;;;;;33.50;29.25;;;;;16.28;35.78;101980.16;4894339;29;11410;-76
2021/04/25 07:48:11;;;;;;;;;19.67;18.00;;;;;16.08;38.13;101976.97;4881468;29;10305;-76
2021/04/25 07:51:07;;;;;;;;;17.67;12.33;;;;;16.24;36.14;101973.59;4878837;29;9481;-77
2021/04/25 07:53:41;;;;;;;;;21.67;20.33;;;;;16.13;35.33;101964.81;4888584;29;9302;-77
2021/04/25 07:56:36;;;;;;;;;6.75;5.75;;;;;16.20;33.00;101976.25;4878699;29;9413;-76
2021/04/25 07:59:35;;;;;;;;;6.00;6.00;;;;;16.27;33.62;101967.34;4871058;29;8874;-75
2021/04/25 08:02:31;;;;;;;;;17.00;15.67;;;;;16.02;32.68;101972.72;4884927;29;9096;-76
2021/04/25 08:05:27;;;;;;;;;7.67;7.67;;;;;16.24;34.17;101954.88;4887950;29;9178;-76
2021/04/25 08:08:22;;;;;;;;;10.00;10.00;;;;;16.11;31.51;101964.31;4884579;29;9532;-77
2021/04/25 08:11:18;;;;;;;;;51.50;40.50;;;;;16.65;35.05;101958.84;4883473;29;9168;-75
2021/04/25 08:14:14;;;;;;;;;31.00;27.75;;;;;17.11;34.85;101963.38;4877193;29;9723;-75
2021/04/25 08:16:50;;;;;;;;;287.75;217.25;;;;;17.04;31.79;101960.31;4890682;29;12411;-76
2021/04/25 08:19:46;;;;;;;;;80.75;63.75;;;;;17.33;34.22;101964.94;4886561;29;11677;-77
2021/04/25 08:22:42;;;;;;;;;59.50;47.75;;;;;16.65;36.71;101944.88;4882009;29;11288;-76
2021/04/25 08:25:11;;;;;;;;;338.50;251.75;;;;;16.80;35.46;101938.69;4877541;29;10842;-76
2021/04/25 08:28:07;;;;;;;;;92.00;71.00;;;;;17.21;36.74;101951.75;4879861;29;9063;-76
2021/04/25 08:31:03;;;;;;;;;6.00;5.75;;;;;16.64;28.22;101929.28;4890188;29;11678;-76
2021/04/25 08:33:58;;;;;;;;;100.25;85.00;;;;;17.09;36.43;101937.72;4879028;29;8865;-77
2021/04/25 08:36:54;;;;;;;;;14.33;14.33;;;;;17.15;28.72;101927.97;4890544;29;11702;-76
2021/04/25 08:39:53;;;;;;;;;17.67;16.33;;;;;16.60;29.42;101933.91;4887717;29;9037;-77
2021/04/25 08:42:49;;;;;;;;;8.00;8.00;;;;;16.19;29.08;101935.53;4886978;29;9084;-75
2021/04/25 08:45:46;;;;;;;;;16.33;16.33;;;;;16.52;30.78;101924.44;4873170;29;8989;-77
2021/04/25 08:48:49;;;;;;;;;68.25;52.00;;;;;16.95;34.28;101932.47;4890032;29;9136;-76
2021/04/25 08:51:45;;;;;;;;;41.67;33.33;;;;;17.25;28.73;101923.91;4891130;29;10263;-75
2021/04/25 08:54:14;;;;;;;;;19.00;19.00;;;;;17.71;29.00;101925.50;4879003;29;9195;-76
2021/04/25 08:57:10;;;;;;;;;15.33;13.33;;;;;17.95;29.07;101918.28;4867321;29;9741;-76
2021/04/25 09:00:08;;;;;;;;;18.50;17.75;;;;;17.43;27.00;101928.13;4869826;29;9183;-76
2021/04/25 09:03:03;;;;;;;;;46.00;35.67;;;;;16.86;31.22;101928.09;4879183;29;8851;-76
2021/04/25 09:05:32;;;;;;;;;5.75;5.75;;;;;16.33;29.70;101912.91;4883916;29;9101;-74
2021/04/25 09:08:04;;;;;;;;;21.67;19.33;;;;;16.53;30.63;101914.91;4877113;29;8875;-74
2021/04/25 09:11:00;;;;;;;;;7.25;7.25;;;;;16.15;29.33;101917.81;4882144;29;9051;-75
2021/04/25 09:14:19;;;;;;;;;4.25;4.25;;;;;15.48;29.95;101899.97;4878322;29;8845;-74
2021/04/25 09:17:15;;;;;;;;;32.67;30.33;;;;;16.84;36.74;101902.50;4889101;29;8899;-75
2021/04/25 09:20:11;;;;;;;;;15.00;14.00;;;;;16.79;30.02;101895.16;4880136;29;9330;-75
2021/04/25 09:23:21;;;;;;;;;15.00;14.33;;;;;16.60;30.62;101889.22;4877115;29;8946;-74
2021/04/25 09:26:16;;;;;;;;;12.33;10.00;;;;;16.31;31.62;101888.16;4881281;29;9211;-74
2021/04/25 09:29:00;;;;;;;;;9.67;9.67;;;;;16.55;31.55;101883.84;4874910;29;9037;-75
2021/04/25 09:31:40;;;;;;;;;2.50;2.50;;;;;16.04;30.01;101881.13;4882931;29;9687;-74
2021/04/25 09:34:09;;;;;;;;;8.50;7.50;;;;;16.62;31.46;101872.94;4877965;29;8873;-74
2021/04/25 09:37:16;;;;;;;;;10.00;9.00;;;;;16.71;31.46;101872.88;4880061;29;8986;-75
2021/04/25 09:40:21;;;;;;;;;13.00;12.00;;;;;16.66;31.12;101863.53;4875599;29;8941;-75
2021/04/25 09:43:19;;;;;;;;;13.00;13.00;;;;;16.83;33.95;101862.56;4877191;29;9078;-74
2021/04/25 09:46:14;;;;;;;;;9.00;9.00;;;;;17.52;30.06;101866.50;4889986;29;8863;-74
2021/04/25 09:48:56;;;;;;;;;10.67;10.67;;;;;17.66;30.98;101852.16;4889494;29;8990;-74
2021/04/25 09:51:52;;;;;;;;;11.50;11.50;;;;;17.08;31.63;101857.00;4888697;29;9024;-75
2021/04/25 09:54:48;;;;;;;;;9.25;9.25;;;;;17.02;34.24;101855.59;4885077;29;8851;-74
2021/04/25 09:57:45;;;;;;;;;15.00;14.00;;;;;17.07;31.86;101849.78;4883482;29;8884;-75
2021/04/25 10:00:14;;;;;;;;;3.00;3.00;;;;;17.00;34.44;101855.13;4895923;29;8868;-75
2021/04/25 10:03:10;;;;;;;;;7.00;7.00;;;;;17.00;31.75;101861.53;4876769;29;8948;-75
2021/04/25 10:06:07;;;;;;;;;9.75;9.25;;;;;17.44;31.34;101848.66;4885899;29;8859;-71
2021/04/25 10:09:15;;;;;;;;;5.50;5.50;;;;;16.97;28.59;101850.25;4893298;29;9658;-71
2021/04/25 10:12:10;;;;;;;;;5.50;5.50;;;;;18.13;28.75;101843.22;4899465;29;8873;-72
2021/04/25 10:14:48;;;;;;;;;6.75;6.75;;;;;18.30;28.09;101854.13;4894311;29;8854;-71
2021/04/25 10:17:36;;;;;;;;;10.25;10.00;;;;;18.05;32.02;101843.00;4900984;29;8884;-72
2021/04/25 10:20:05;;;;;;;;;3.00;3.00;;;;;18.07;28.90;101842.66;4884477;29;9623;-72
2021/04/25 10:22:33;;;;;;;;;4.75;4.75;;;;;17.41;28.08;101851.34;4900911;29;8889;-72
2021/04/25 10:25:01;;;;;;;;;6.00;6.00;;;;;17.16;28.52;101847.72;4900986;29;8872;-71
2021/04/25 10:27:30;;;;;;;;;4.75;4.75;;;;;17.16;29.36;101848.53;4901033;29;8865;-71
2021/04/25 10:30:05;;;;;;;;;7.25;7.25;;;;;17.38;31.57;101850.06;4884872;29;8858;-71
2021/04/25 10:32:34;;;;;;;;;2.75;2.75;;;;;16.42;28.95;101835.50;4900811;29;8842;-70
2021/04/25 10:35:16;;;;;;;;;5.25;5.25;;;;;16.62;32.44;101834.63;4884280;29;8907;-71
2021/04/25 10:37:45;;;;;;;;;6.00;6.00;;;;;17.38;29.58;101840.84;4900861;29;8877;-70
2021/04/25 10:40:19;;;;;;;;;6.50;6.50;;;;;17.80;28.28;101829.44;4900844;29;8865;-70
2021/04/25 10:43:09;;;;;;;;;7.00;7.00;;;;;18.13;28.39;101812.44;4900313;29;8846;-71
2021/04/25 10:45:57;;;;;;;;;8.50;8.50;;;;;18.02;27.36;101826.13;4900628;29;8880;-71
2021/04/25 10:48:32;;;;;;;;;5.25;5.25;;;;;18.01;31.53;101827.28;4900495;29;8873;-72
2021/04/25 10:51:20;;;;;;;;;6.00;6.00;;;;;18.37;26.99;101829.13;4900375;29;8874;-71
2021/04/25 10:54:03;;;;;;;;;6.25;6.25;;;;;18.38;28.04;101825.16;4900287;29;9620;-71
2021/04/25 10:56:32;;;;;;;;;6.00;6.00;;;;;18.79;26.79;101828.75;4900384;29;8874;-71
2021/04/25 10:59:22;;;;;;;;;8.75;8.25;;;;;18.68;28.35;101831.22;4899337;29;8861;-71
2021/04/25 11:01:50;;;;;;;;;8.00;8.00;;;;;18.75;26.81;101827.81;4883823;29;9595;-72
2021/04/25 11:04:55;;;;;;;;;9.25;9.25;;;;;19.13;27.23;101828.03;4898930;29;8846;-72
2021/04/25 11:07:34;;;;;;;;;5.00;5.00;;;;;19.28;28.42;101817.16;4883562;29;8869;-72
2021/04/25 11:10:03;;;;;;;;;6.00;6.00;;;;;19.52;26.64;101822.56;4900252;29;8853;-72
2021/04/25 11:12:44;;;;;;;;;6.50;6.50;;;;;19.90;25.67;101807.00;4899930;29;8908;-71
2021/04/25 11:15:48;;;;;;;;;7.00;7.00;;;;;19.63;25.00;101806.84;4883658;29;8950;-71
2021/04/25 11:18:43;;;;;;;;;5.00;5.00;;;;;19.82;24.66;101806.03;4899991;29;8853;-71
2021/04/25 11:21:26;;;;;;;;;6.75;6.75;;;;;20.03;25.94;101799.28;4899835;29;8857;-72
2021/04/25 11:24:04;;;;;;;;;7.00;7.00;;;;;20.14;26.10;101800.31;4899627;29;9600;-71
2021/04/25 11:26:40;;;;;;;;;6.00;6.00;;;;;20.63;26.72;101794.91;4899548;29;8841;-72
2021/04/25 11:29:20;;;;;;;;;6.25;6.25;;;;;19.99;26.59;101796.38;4883551;29;8928;-72
2021/04/25 11:31:55;;;;;;;;;5.25;5.25;;;;;20.23;25.19;101779.22;4899977;29;8865;-71
2021/04/25 11:34:23;;;;;;;;;8.00;8.00;;;;;20.58;25.14;101767.09;4899560;29;8852;-73
2021/04/25 11:37:01;;;;;;;;;5.75;5.75;;;;;20.82;24.58;101763.09;4899754;29;8857;-74
2021/04/25 11:39:30;;;;;;;;;6.75;6.75;;;;;21.08;25.88;101762.31;4899699;29;8974;-74
2021/04/25 11:41:59;;;;;;;;;8.00;8.00;;;;;20.55;25.28;101759.41;4899558;29;9580;-74
2021/04/25 11:44:41;;;;;;;;;7.50;7.50;;;;;20.63;24.82;101755.56;4899373;29;8861;-74
2021/04/25 11:47:11;;;;;;;;;5.25;5.25;;;;;20.04;24.10;101739.94;4899404;29;8880;-74
2021/04/25 11:49:47;;;;;;;;;0.75;0.75;;;;;20.91;24.29;101749.59;4892485;29;8841;-75
2021/04/25 11:52:17;;;;;;;;;7.00;7.00;;;;;20.78;23.53;101749.00;4899262;29;8861;-74
2021/04/25 11:55:06;;;;;;;;;7.00;7.00;;;;;20.91;23.40;101745.97;4899302;29;8971;-75
2021/04/25 11:57:37;;;;;;;;;7.00;7.00;;;;;20.93;23.65;101738.78;4899298;29;8854;-74
2021/04/25 12:00:32;;;;;;;;;7.00;7.00;;;;;21.05;22.96;101732.97;4882592;29;8889;-74
2021/04/25 12:03:02;;;;;;;;;5.75;5.75;;;;;21.50;22.96;101733.25;4896969;29;8870;-74
2021/04/25 12:05:35;;;;;;;;;6.00;6.00;;;;;21.58;22.68;101721.72;4898857;29;8861;-74
2021/04/25 12:08:09;;;;;;;;;5.25;5.25;;;;;20.75;23.98;101718.00;4898913;29;9614;-73
2021/04/25 12:10:38;;;;;;;;;6.00;6.00;;;;;21.65;22.94;101723.81;4899118;29;8870;-74
2021/04/25 12:13:17;;;;;;;;;5.25;5.25;;;;;21.60;23.57;101716.50;4898862;29;8936;-73
2021/04/25 12:16:03;;;;;;;;;5.00;5.00;;;;;21.88;24.14;101715.25;4898684;29;8854;-74
2021/04/25 12:18:36;;;;;;;;;5.50;5.50;;;;;22.40;23.01;101716.28;4898788;29;8854;-75
2021/04/25 12:21:06;;;;;;;;;5.25;5.25;;;;;21.75;21.89;101709.06;4898707;29;8976;-73
2021/04/25 12:23:42;;;;;;;;;7.00;7.00;;;;;22.03;22.63;101702.16;4882374;29;8862;-74
2021/04/25 12:26:13;;;;;;;;;4.00;4.00;;;;;22.25;22.91;101703.25;4898640;29;9608;-73
2021/04/25 12:28:43;;;;;;;;;7.00;7.00;;;;;22.32;24.28;101701.31;4891068;29;8838;-74
2021/04/25 12:31:14;;;;;;;;;5.20;5.20;;;;;22.76;24.26;101698.47;4898710;29;8873;-74
2021/04/25 12:33:41;;;;;;;;;4.60;4.60;;;;;22.30;22.71;101692.41;4882039;29;9584;-74
2021/04/25 12:36:14;;;;;;;;;5.00;4.20;;;;;22.13;22.75;101693.03;4898790;29;8881;-74
2021/04/25 12:38:53;;;;;;;;;4.40;4.40;;;;;22.18;24.09;101687.88;4898572;29;8876;-71
2021/04/25 12:41:52;;;;;;;;;6.50;6.50;;;;;21.16;25.37;101687.28;4887613;29;8857;-70
2021/04/25 12:44:37;;;;;;;;;7.75;7.75;;;;;19.31;25.10;101684.59;4892378;29;9686;-70
2021/04/25 12:47:34;;;;;;;;;5.00;5.00;;;;;18.16;26.17;101683.75;4887843;29;8867;-70
2021/04/25 12:50:33;;;;;;;;;6.00;6.00;;;;;18.92;27.52;101686.50;4872796;29;8881;-70
2021/04/25 12:53:29;;;;;;;;;4.75;4.75;;;;;19.81;27.02;101680.91;4891607;29;9406;-68
2021/04/25 12:56:21;;;;;;;;;7.00;7.00;;;;;20.25;25.87;101687.00;4892713;29;8918;-70
2021/04/25 12:59:38;;;;;;;;;5.00;5.00;;;;;20.53;23.98;101681.09;4891528;29;8854;-69
2021/04/25 13:02:12;;;;;;;;;4.75;4.75;;;;;20.56;26.79;101676.72;4890924;29;8859;-70
2021/04/25 13:05:09;;;;;;;;;6.25;6.25;;;;;20.32;25.14;101686.31;4889803;29;8897;-69